createdAt,value
2022-09-21T00:00:46.351Z,65.58
2022-09-21T00:01:46.291Z,65.58
2022-09-21T00:02:46.277Z,65.58
2022-09-21T00:03:46.267Z,65.58
2022-09-21T00:04:46.261Z,65.58
2022-09-21T00:05:46.260Z,65.58
2022-09-21T00:06:46.223Z,65.58
2022-09-21T00:07:46.211Z,65.58
2022-09-21T00:08:46.201Z,65.58
2022-09-21T00:09:46.186Z,65.58
2022-09-21T00:10:46.171Z,65.58
2022-09-21T00:11:46.159Z,65.58
2022-09-21T00:12:46.144Z,65.58
2022-09-21T00:13:46.131Z,65.58
2022-09-21T00:14:46.116Z,65.58
2022-09-21T00:15:46.105Z,65.58
2022-09-21T00:16:46.131Z,65.58
2022-09-21T00:17:46.077Z,65.58
2022-09-21T00:18:46.063Z,65.58
2022-09-21T00:19:46.052Z,65.58
2022-09-21T00:20:46.049Z,65.58
2022-09-21T00:21:46.050Z,65.68
2022-09-21T00:22:46.012Z,65.58
2022-09-21T00:23:45.997Z,65.58
2022-09-21T00:24:45.983Z,65.58
2022-09-21T00:25:45.971Z,65.58
2022-09-21T00:26:45.957Z,65.58
2022-09-21T00:27:45.944Z,65.58
2022-09-21T00:28:45.935Z,65.58
2022-09-21T00:29:45.916Z,65.58
2022-09-21T00:30:45.902Z,65.58
2022-09-21T00:31:45.933Z,65.58
2022-09-21T00:32:45.874Z,65.58
2022-09-21T00:33:45.863Z,65.58
2022-09-21T00:34:45.848Z,65.58
2022-09-21T00:35:45.837Z,65.58
2022-09-21T00:36:45.822Z,65.58
2022-09-21T00:37:45.833Z,65.68
2022-09-21T00:38:45.795Z,65.68
2022-09-21T00:39:45.783Z,65.68
2022-09-21T00:40:45.769Z,65.68
2022-09-21T00:41:45.760Z,65.68
2022-09-21T00:42:45.743Z,65.68
2022-09-21T00:43:45.730Z,65.58
2022-09-21T00:44:45.718Z,65.68
2022-09-21T00:45:45.741Z,65.58
2022-09-21T00:46:45.690Z,65.58
2022-09-21T00:47:45.679Z,65.58
2022-09-21T00:48:45.662Z,65.58
2022-09-21T00:49:45.671Z,65.68
2022-09-21T00:50:45.638Z,65.68
2022-09-21T00:51:45.625Z,65.58
2022-09-21T00:52:45.610Z,65.58
2022-09-21T00:53:45.623Z,65.58
2022-09-21T00:54:45.582Z,65.68
2022-09-21T00:55:45.570Z,65.68
2022-09-21T00:56:45.556Z,65.58
2022-09-21T00:57:45.544Z,65.68
2022-09-21T00:58:45.531Z,65.68
2022-09-21T00:59:45.518Z,65.68
2022-09-21T01:00:45.573Z,65.58
2022-09-21T01:01:45.519Z,65.58
2022-09-21T01:02:45.475Z,65.58
2022-09-21T01:03:45.465Z,65.58
2022-09-21T01:04:45.450Z,65.58
2022-09-21T01:05:45.438Z,65.58
2022-09-21T01:06:45.427Z,65.58
2022-09-21T01:07:45.411Z,65.58
2022-09-21T01:08:45.397Z,65.58
2022-09-21T01:09:45.409Z,65.58
2022-09-21T01:10:45.372Z,65.58
2022-09-21T01:11:45.360Z,65.58
2022-09-21T01:12:45.346Z,65.58
2022-09-21T01:13:45.332Z,65.68
2022-09-21T01:14:45.319Z,65.58
2022-09-21T01:15:45.306Z,65.68
2022-09-21T01:16:45.290Z,65.58
2022-09-21T01:17:45.279Z,65.58
2022-09-21T01:18:45.266Z,65.58
2022-09-21T01:19:45.261Z,65.58
2022-09-21T01:20:45.241Z,65.58
2022-09-21T01:21:45.227Z,65.58
2022-09-21T01:22:45.212Z,65.58
2022-09-21T01:23:45.201Z,65.58
2022-09-21T01:24:45.184Z,65.58
2022-09-21T01:25:45.269Z,65.58
2022-09-21T01:26:45.160Z,65.58
2022-09-21T01:27:45.147Z,65.58
2022-09-21T01:28:45.132Z,65.58
2022-09-21T01:29:45.120Z,65.58
2022-09-21T01:30:48.942Z,65.58
2022-09-21T01:31:45.177Z,65.58
2022-09-21T01:32:45.078Z,65.58
2022-09-21T01:33:45.068Z,65.58
2022-09-21T01:34:45.053Z,65.58
2022-09-21T01:35:45.040Z,65.58
2022-09-21T01:36:45.025Z,65.68
2022-09-21T01:37:45.022Z,65.68
2022-09-21T01:38:44.999Z,65.68
2022-09-21T01:39:44.987Z,65.58
2022-09-21T01:40:44.998Z,65.58
2022-09-21T01:41:44.984Z,65.58
2022-09-21T01:42:44.944Z,65.58
2022-09-21T01:43:44.934Z,65.58
2022-09-21T01:44:44.918Z,65.68
2022-09-21T01:45:45.015Z,65.58
2022-09-21T01:46:44.893Z,65.58
2022-09-21T01:47:44.882Z,65.58
2022-09-21T01:48:44.865Z,65.58
2022-09-21T01:49:44.854Z,65.58
2022-09-21T01:50:44.838Z,65.58
2022-09-21T01:51:44.828Z,65.58
2022-09-21T01:52:44.814Z,65.58
2022-09-21T01:53:44.803Z,65.58
2022-09-21T01:54:44.792Z,65.58
2022-09-21T01:55:44.776Z,65.58
2022-09-21T01:56:44.759Z,65.58
2022-09-21T01:57:44.775Z,65.61
2022-09-21T01:58:44.735Z,65.58
2022-09-21T01:59:44.740Z,65.58
2022-09-21T02:00:44.750Z,65.58
2022-09-21T02:01:44.723Z,65.61
2022-09-21T02:02:44.680Z,65.61
2022-09-21T02:03:44.669Z,65.61
2022-09-21T02:04:44.653Z,65.61
2022-09-21T02:05:44.642Z,65.61
2022-09-21T02:06:44.627Z,65.61
2022-09-21T02:07:44.615Z,65.61
2022-09-21T02:08:44.600Z,65.61
2022-09-21T02:09:44.589Z,65.61
2022-09-21T02:10:44.575Z,65.61
2022-09-21T02:11:44.562Z,65.61
2022-09-21T02:12:44.548Z,65.61
2022-09-21T02:13:44.664Z,65.61
2022-09-21T02:14:44.522Z,65.61
2022-09-21T02:15:44.511Z,65.61
2022-09-21T02:16:44.495Z,65.61
2022-09-21T02:17:44.483Z,65.71
2022-09-21T02:18:44.468Z,65.61
2022-09-21T02:19:44.457Z,65.61
2022-09-21T02:20:44.441Z,65.61
2022-09-21T02:21:44.430Z,65.58
2022-09-21T02:22:44.415Z,65.51
2022-09-21T02:23:44.403Z,65.51
2022-09-21T02:24:44.388Z,65.61
2022-09-21T02:25:44.377Z,65.51
2022-09-21T02:26:44.363Z,65.61
2022-09-21T02:27:44.350Z,65.61
2022-09-21T02:28:44.337Z,65.61
2022-09-21T02:29:44.348Z,65.61
2022-09-21T02:30:44.311Z,65.61
2022-09-21T02:31:44.336Z,65.61
2022-09-21T02:32:44.284Z,65.61
2022-09-21T02:33:44.271Z,65.61
2022-09-21T02:34:44.257Z,65.61
2022-09-21T02:35:44.246Z,65.61
2022-09-21T02:36:44.229Z,65.61
2022-09-21T02:37:44.227Z,65.61
2022-09-21T02:38:44.211Z,65.61
2022-09-21T02:39:44.192Z,65.61
2022-09-21T02:40:44.180Z,65.61
2022-09-21T02:41:44.167Z,65.61
2022-09-21T02:42:44.151Z,65.61
2022-09-21T02:43:44.151Z,65.61
2022-09-21T02:44:44.132Z,65.51
2022-09-21T02:45:44.137Z,65.61
2022-09-21T02:46:44.152Z,65.61
2022-09-21T02:47:44.085Z,65.61
2022-09-21T02:48:44.074Z,65.61
2022-09-21T02:49:44.060Z,65.61
2022-09-21T02:50:44.045Z,65.61
2022-09-21T02:51:44.033Z,65.61
2022-09-21T02:52:44.017Z,65.51
2022-09-21T02:53:44.007Z,65.51
2022-09-21T02:54:43.992Z,65.61
2022-09-21T02:55:43.979Z,65.51
2022-09-21T02:56:43.964Z,65.51
2022-09-21T02:57:43.977Z,65.51
2022-09-21T02:58:43.937Z,65.51
2022-09-21T02:59:43.930Z,65.51
2022-09-21T03:00:43.971Z,65.51
2022-09-21T03:01:43.969Z,65.41
2022-09-21T03:02:43.884Z,65.41
2022-09-21T03:03:43.873Z,65.51
2022-09-21T03:04:43.863Z,65.41
2022-09-21T03:05:43.847Z,65.51
2022-09-21T03:06:43.833Z,65.51
2022-09-21T03:07:43.821Z,65.51
2022-09-21T03:08:43.957Z,65.51
2022-09-21T03:09:43.797Z,65.51
2022-09-21T03:10:43.781Z,65.61
2022-09-21T03:11:43.766Z,65.61
2022-09-21T03:12:43.754Z,65.61
2022-09-21T03:13:43.739Z,65.51
2022-09-21T03:14:43.728Z,65.51
2022-09-21T03:15:43.749Z,65.51
2022-09-21T03:16:43.701Z,65.51
2022-09-21T03:17:43.709Z,65.51
2022-09-21T03:18:43.674Z,65.61
2022-09-21T03:19:43.659Z,65.61
2022-09-21T03:20:43.648Z,65.51
2022-09-21T03:21:44.723Z,65.51
2022-09-21T03:22:43.622Z,65.51
2022-09-21T03:23:43.609Z,65.51
2022-09-21T03:24:43.596Z,65.51
2022-09-21T03:25:43.580Z,65.51
2022-09-21T03:26:43.569Z,65.51
2022-09-21T03:27:43.555Z,65.51
2022-09-21T03:28:43.542Z,65.61
2022-09-21T03:29:43.526Z,65.61
2022-09-21T03:30:43.522Z,65.51
2022-09-21T03:31:43.501Z,65.51
2022-09-21T03:32:43.489Z,65.51
2022-09-21T03:33:43.498Z,65.41
2022-09-21T03:34:43.463Z,65.41
2022-09-21T03:35:43.448Z,65.51
2022-09-21T03:36:43.435Z,65.41
2022-09-21T03:37:43.420Z,65.41
2022-09-21T03:38:43.409Z,65.41
2022-09-21T03:39:43.395Z,65.41
2022-09-21T03:40:43.383Z,65.51
2022-09-21T03:41:43.367Z,65.51
2022-09-21T03:42:43.355Z,65.41
2022-09-21T03:43:43.341Z,65.51
2022-09-21T03:44:43.329Z,65.51
2022-09-21T03:45:43.314Z,65.41
2022-09-21T03:46:43.305Z,65.51
2022-09-21T03:47:43.290Z,65.51
2022-09-21T03:48:43.277Z,65.51
2022-09-21T03:49:43.283Z,65.41
2022-09-21T03:50:43.249Z,65.41
2022-09-21T03:51:43.235Z,65.51
2022-09-21T03:52:43.223Z,65.41
2022-09-21T03:53:43.210Z,65.41
2022-09-21T03:54:43.196Z,65.41
2022-09-21T03:55:43.182Z,65.41
2022-09-21T03:56:43.171Z,65.41
2022-09-21T03:57:43.158Z,65.41
2022-09-21T03:58:43.144Z,65.41
2022-09-21T03:59:43.127Z,65.41
2022-09-21T04:00:43.116Z,65.41
2022-09-21T04:01:43.145Z,65.41
2022-09-21T04:02:43.194Z,65.41
2022-09-21T04:03:43.075Z,65.41
2022-09-21T04:04:43.064Z,65.41
2022-09-21T04:05:43.072Z,65.31
2022-09-21T04:06:43.037Z,65.31
2022-09-21T04:07:43.023Z,65.31
2022-09-21T04:08:43.870Z,65.31
2022-09-21T04:09:42.995Z,65.31
2022-09-21T04:10:42.983Z,65.31
2022-09-21T04:11:42.967Z,65.31
2022-09-21T04:12:42.956Z,65.31
2022-09-21T04:13:42.941Z,65.31
2022-09-21T04:14:42.930Z,65.31
2022-09-21T04:15:42.970Z,65.31
2022-09-21T04:16:42.903Z,65.41
2022-09-21T04:17:42.887Z,65.41
2022-09-21T04:18:42.877Z,65.31
2022-09-21T04:19:42.863Z,65.31
2022-09-21T04:20:42.849Z,65.31
2022-09-21T04:21:42.859Z,65.31
2022-09-21T04:22:43.796Z,65.31
2022-09-21T04:23:42.809Z,65.31
2022-09-21T04:24:42.797Z,65.31
2022-09-21T04:25:42.783Z,65.31
2022-09-21T04:26:42.771Z,65.31
2022-09-21T04:27:42.766Z,65.31
2022-09-21T04:28:42.743Z,65.20
2022-09-21T04:29:42.737Z,65.20
2022-09-21T04:30:42.787Z,65.20
2022-09-21T04:31:42.702Z,65.20
2022-09-21T04:32:42.692Z,65.20
2022-09-21T04:33:42.676Z,65.31
2022-09-21T04:34:42.666Z,65.20
2022-09-21T04:35:42.650Z,65.20
2022-09-21T04:36:42.638Z,65.20
2022-09-21T04:37:42.646Z,65.20
2022-09-21T04:38:42.612Z,65.20
2022-09-21T04:39:42.597Z,65.20
2022-09-21T04:40:42.623Z,65.20
2022-09-21T04:41:42.570Z,65.20
2022-09-21T04:42:42.559Z,65.20
2022-09-21T04:43:42.544Z,65.20
2022-09-21T04:44:42.534Z,65.20
2022-09-21T04:45:42.517Z,65.11
2022-09-21T04:46:42.515Z,65.11
2022-09-21T04:47:42.490Z,65.11
2022-09-21T04:48:42.478Z,65.11
2022-09-21T04:49:42.464Z,65.11
2022-09-21T04:50:42.453Z,65.11
2022-09-21T04:51:42.437Z,65.11
2022-09-21T04:52:42.426Z,65.11
2022-09-21T04:53:42.528Z,65.11
2022-09-21T04:54:42.401Z,65.11
2022-09-21T04:55:42.384Z,65.00
2022-09-21T04:56:42.372Z,65.11
2022-09-21T04:57:42.360Z,65.00
2022-09-21T04:58:42.346Z,65.00
2022-09-21T04:59:42.330Z,65.11
2022-09-21T05:00:42.318Z,65.11
2022-09-21T05:01:42.373Z,65.11
2022-09-21T05:02:42.293Z,65.11
2022-09-21T05:03:42.330Z,65.00
2022-09-21T05:04:42.267Z,65.00
2022-09-21T05:05:42.251Z,65.00
2022-09-21T05:06:42.238Z,65.00
2022-09-21T05:07:42.224Z,65.00
2022-09-21T05:08:42.213Z,65.00
2022-09-21T05:09:42.221Z,65.11
2022-09-21T05:10:42.185Z,65.11
2022-09-21T05:11:42.172Z,65.11
2022-09-21T05:12:42.159Z,65.11
2022-09-21T05:13:42.144Z,65.11
2022-09-21T05:14:42.131Z,65.11
2022-09-21T05:15:42.148Z,65.00
2022-09-21T05:16:42.107Z,65.00
2022-09-21T05:17:42.092Z,65.00
2022-09-21T05:18:42.080Z,65.00
2022-09-21T05:19:42.065Z,65.00
2022-09-21T05:20:42.054Z,64.91
2022-09-21T05:21:42.039Z,64.91
2022-09-21T05:22:42.026Z,64.91
2022-09-21T05:23:42.014Z,64.91
2022-09-21T05:24:42.001Z,64.91
2022-09-21T05:25:42.009Z,64.91
2022-09-21T05:26:41.975Z,64.91
2022-09-21T05:27:41.959Z,64.91
2022-09-21T05:28:41.948Z,64.91
2022-09-21T05:29:41.933Z,64.91
2022-09-21T05:30:51.582Z,64.91
2022-09-21T05:31:43.024Z,64.91
2022-09-21T05:32:41.894Z,64.80
2022-09-21T05:33:41.881Z,64.80
2022-09-21T05:34:41.871Z,64.91
2022-09-21T05:35:41.854Z,64.91
2022-09-21T05:36:41.844Z,64.91
2022-09-21T05:37:41.829Z,64.91
2022-09-21T05:38:41.820Z,64.80
2022-09-21T05:39:41.801Z,64.80
2022-09-21T05:40:41.853Z,64.80
2022-09-21T05:41:41.828Z,64.91
2022-09-21T05:42:41.763Z,64.80
2022-09-21T05:43:41.749Z,64.91
2022-09-21T05:44:41.737Z,64.80
2022-09-21T05:45:45.851Z,64.91
2022-09-21T05:46:41.709Z,64.91
2022-09-21T05:47:41.695Z,64.91
2022-09-21T05:48:41.684Z,64.91
2022-09-21T05:49:41.670Z,64.91
2022-09-21T05:50:41.660Z,64.91
2022-09-21T05:51:41.643Z,64.91
2022-09-21T05:52:41.632Z,64.80
2022-09-21T05:53:41.618Z,64.80
2022-09-21T05:54:41.605Z,64.80
2022-09-21T05:55:41.590Z,64.80
2022-09-21T05:56:41.579Z,64.80
2022-09-21T05:57:41.589Z,64.80
2022-09-21T05:58:41.552Z,64.80
2022-09-21T05:59:41.537Z,64.80
2022-09-21T06:00:41.528Z,64.80
2022-09-21T06:01:41.532Z,64.70
2022-09-21T06:02:41.522Z,64.80
2022-09-21T06:03:41.485Z,64.80
2022-09-21T06:04:41.473Z,64.70
2022-09-21T06:05:41.457Z,64.70
2022-09-21T06:06:41.446Z,64.70
2022-09-21T06:07:41.431Z,64.70
2022-09-21T06:08:41.418Z,64.70
2022-09-21T06:09:43.342Z,64.70
2022-09-21T06:10:41.393Z,64.70
2022-09-21T06:11:41.378Z,64.70
2022-09-21T06:12:41.365Z,64.70
2022-09-21T06:13:41.377Z,64.70
2022-09-21T06:14:41.340Z,64.70
2022-09-21T06:15:41.325Z,64.70
2022-09-21T06:16:41.422Z,64.70
2022-09-21T06:17:41.301Z,64.70
2022-09-21T06:18:41.295Z,64.70
2022-09-21T06:19:41.273Z,64.60
2022-09-21T06:20:41.275Z,64.60
2022-09-21T06:21:41.246Z,64.60
2022-09-21T06:22:41.233Z,64.60
2022-09-21T06:23:41.221Z,64.60
2022-09-21T06:24:41.205Z,64.60
2022-09-21T06:25:41.190Z,64.60
2022-09-21T06:26:41.180Z,64.70
2022-09-21T06:27:41.164Z,64.70
2022-09-21T06:28:41.158Z,64.70
2022-09-21T06:29:41.161Z,64.70
2022-09-21T06:30:41.143Z,64.70
2022-09-21T06:31:41.111Z,64.70
2022-09-21T06:32:41.099Z,64.70
2022-09-21T06:33:43.865Z,64.70
2022-09-21T06:34:42.110Z,64.70
2022-09-21T06:35:41.131Z,64.70
2022-09-21T06:36:41.066Z,64.70
2022-09-21T06:37:41.057Z,64.60
2022-09-21T06:38:41.034Z,64.60
2022-09-21T06:39:41.032Z,64.60
2022-09-21T06:40:41.049Z,64.60
2022-09-21T06:41:41.014Z,64.70
2022-09-21T06:42:40.974Z,64.60
2022-09-21T06:43:40.958Z,64.60
2022-09-21T06:44:41.063Z,64.60
2022-09-21T06:45:41.117Z,64.60
2022-09-21T06:46:40.933Z,64.60
2022-09-21T06:47:40.919Z,64.60
2022-09-21T06:48:40.902Z,64.60
2022-09-21T06:49:42.702Z,64.60
2022-09-21T06:50:40.893Z,64.60
2022-09-21T06:51:40.855Z,64.60
2022-09-21T06:52:40.941Z,64.60
2022-09-21T06:53:40.817Z,64.60
2022-09-21T06:54:40.807Z,64.60
2022-09-21T06:55:40.991Z,64.50
2022-09-21T06:56:40.779Z,64.50
2022-09-21T06:57:40.764Z,64.50
2022-09-21T06:58:40.752Z,64.50
2022-09-21T06:59:40.737Z,64.50
2022-09-21T07:00:40.937Z,64.39
2022-09-21T07:01:40.880Z,64.39
2022-09-21T07:02:40.700Z,64.39
2022-09-21T07:03:40.685Z,64.39
2022-09-21T07:04:40.673Z,64.39
2022-09-21T07:05:40.658Z,64.30
2022-09-21T07:06:40.646Z,64.30
2022-09-21T07:07:40.663Z,64.19
2022-09-21T07:10:41.632Z,64.19
2022-09-21T07:11:40.579Z,64.19
2022-09-21T07:12:40.567Z,64.19
2022-09-21T07:13:40.551Z,64.19
2022-09-21T07:14:40.539Z,64.19
2022-09-21T07:15:40.527Z,64.19
2022-09-21T07:16:40.549Z,64.09
2022-09-21T07:17:40.525Z,64.09
2022-09-21T07:18:44.177Z,64.09
2022-09-21T07:19:40.471Z,64.09
2022-09-21T07:20:40.459Z,64.09
2022-09-21T07:21:40.447Z,63.99
2022-09-21T07:22:40.432Z,64.09
2022-09-21T07:23:40.417Z,64.19
2022-09-21T07:24:40.406Z,64.09
2022-09-21T07:25:40.390Z,64.09
2022-09-21T07:26:40.378Z,64.09
2022-09-21T07:27:40.365Z,64.09
2022-09-21T07:28:40.349Z,64.09
2022-09-21T07:29:40.339Z,64.19
2022-09-21T07:30:40.324Z,64.06
2022-09-21T07:31:40.348Z,64.09
2022-09-21T07:32:40.298Z,64.06
2022-09-21T07:33:40.310Z,64.09
2022-09-21T07:34:40.270Z,64.06
2022-09-21T07:35:40.259Z,64.06
2022-09-21T07:36:40.244Z,64.09
2022-09-21T07:37:40.232Z,64.06
2022-09-21T07:38:40.219Z,64.06
2022-09-21T07:39:40.207Z,64.06
2022-09-21T07:40:40.246Z,63.96
2022-09-21T07:41:40.180Z,63.96
2022-09-21T07:42:40.165Z,63.96
2022-09-21T07:43:40.153Z,63.96
2022-09-21T07:44:40.138Z,63.96
2022-09-21T07:45:40.218Z,63.96
2022-09-21T07:46:45.805Z,63.96
2022-09-21T07:47:41.137Z,63.96
2022-09-21T07:48:40.083Z,63.96
2022-09-21T07:49:40.096Z,63.96
2022-09-21T07:50:40.070Z,63.96
2022-09-21T07:51:40.047Z,63.86
2022-09-21T07:52:40.038Z,63.86
2022-09-21T07:53:40.024Z,63.96
2022-09-21T07:54:40.006Z,63.86
2022-09-21T07:55:39.993Z,63.86
2022-09-21T07:56:39.978Z,63.96
2022-09-21T07:57:39.969Z,63.86
2022-09-21T07:58:39.976Z,63.86
2022-09-21T07:59:39.940Z,63.86
2022-09-21T08:00:39.949Z,63.86
2022-09-21T08:01:39.912Z,63.86
2022-09-21T08:02:43.807Z,63.86
2022-09-21T08:03:40.934Z,63.86
2022-09-21T08:04:39.873Z,63.86
2022-09-21T08:05:39.885Z,63.86
2022-09-21T08:06:39.946Z,63.86
2022-09-21T08:07:39.834Z,63.86
2022-09-21T08:08:39.820Z,63.76
2022-09-21T08:09:39.808Z,63.86
2022-09-21T08:10:39.791Z,63.86
2022-09-21T08:11:39.783Z,63.86
2022-09-21T08:12:39.765Z,63.86
2022-09-21T08:13:39.755Z,63.76
2022-09-21T08:14:39.739Z,63.76
2022-09-21T08:15:50.760Z,63.76
2022-09-21T08:16:40.895Z,63.76
2022-09-21T08:17:39.700Z,63.76
2022-09-21T08:18:39.774Z,63.76
2022-09-21T08:19:39.679Z,63.76
2022-09-21T08:20:39.660Z,63.76
2022-09-21T08:21:39.669Z,63.76
2022-09-21T08:22:39.632Z,63.76
2022-09-21T08:23:39.622Z,63.76
2022-09-21T08:24:39.607Z,63.76
2022-09-21T08:25:39.594Z,63.76
2022-09-21T08:26:39.580Z,63.76
2022-09-21T08:27:39.576Z,63.76
2022-09-21T08:28:39.553Z,63.76
2022-09-21T08:29:39.539Z,63.65
2022-09-21T08:30:39.526Z,63.65
2022-09-21T08:31:39.585Z,63.65
2022-09-21T08:32:50.926Z,63.65
2022-09-21T08:33:40.526Z,63.65
2022-09-21T08:34:39.473Z,63.65
2022-09-21T08:35:39.463Z,63.65
2022-09-21T08:36:39.446Z,63.65
2022-09-21T08:37:39.484Z,63.65
2022-09-21T08:38:39.421Z,63.65
2022-09-21T08:39:39.407Z,63.65
2022-09-21T08:40:39.516Z,63.56
2022-09-21T08:41:39.385Z,63.56
2022-09-21T08:42:39.367Z,63.56
2022-09-21T08:43:39.365Z,63.56
2022-09-21T08:44:39.344Z,63.56
2022-09-21T08:45:39.337Z,63.45
2022-09-21T08:46:39.353Z,63.56
2022-09-21T08:47:39.304Z,63.45
2022-09-21T08:48:39.296Z,63.45
2022-09-21T08:49:39.275Z,63.45
2022-09-21T08:50:39.262Z,63.45
2022-09-21T08:51:39.254Z,63.45
2022-09-21T08:52:39.234Z,63.45
2022-09-21T08:53:39.248Z,63.45
2022-09-21T08:54:39.208Z,63.45
2022-09-21T08:55:39.195Z,63.45
2022-09-21T08:57:00.983Z,63.45
2022-09-21T08:57:40.208Z,63.45
2022-09-21T08:58:39.155Z,63.45
2022-09-21T08:59:39.143Z,63.45
2022-09-21T09:00:39.185Z,63.45
2022-09-21T09:01:39.240Z,63.45
2022-09-21T09:02:39.102Z,63.45
2022-09-21T09:03:41.446Z,63.45
2022-09-21T09:04:39.075Z,63.45
2022-09-21T09:05:39.066Z,63.45
2022-09-21T09:06:39.048Z,63.45
2022-09-21T09:07:39.038Z,63.45
2022-09-21T09:08:39.022Z,63.45
2022-09-21T09:09:39.039Z,63.45
2022-09-21T09:10:38.998Z,63.45
2022-09-21T09:11:38.982Z,63.35
2022-09-21T09:12:38.969Z,63.45
2022-09-21T09:13:38.955Z,63.35
2022-09-21T09:14:38.941Z,63.35
2022-09-21T09:15:38.930Z,63.32
2022-09-21T09:16:39.002Z,63.22
2022-09-21T09:17:38.904Z,63.22
2022-09-21T09:18:43.276Z,63.22
2022-09-21T09:19:38.876Z,63.22
2022-09-21T09:20:38.861Z,63.22
2022-09-21T09:21:38.848Z,63.22
2022-09-21T09:22:38.834Z,63.22
2022-09-21T09:23:38.825Z,63.32
2022-09-21T09:24:38.807Z,63.32
2022-09-21T09:25:38.821Z,63.32
2022-09-21T09:26:38.780Z,63.32
2022-09-21T09:27:38.770Z,63.45
2022-09-21T09:28:38.756Z,63.45
2022-09-21T09:29:38.744Z,63.45
2022-09-21T09:30:38.728Z,63.45
2022-09-21T09:31:38.875Z,63.42
2022-09-21T09:32:38.701Z,63.45
2022-09-21T09:33:38.689Z,63.56
2022-09-21T09:34:38.675Z,63.45
2022-09-21T09:35:38.672Z,63.45
2022-09-21T09:36:57.817Z,63.45
2022-09-21T09:37:39.676Z,63.56
2022-09-21T09:38:38.622Z,63.56
2022-09-21T09:39:38.611Z,63.56
2022-09-21T09:40:38.709Z,63.56
2022-09-21T09:41:38.611Z,63.56
2022-09-21T09:42:38.569Z,63.56
2022-09-21T09:43:38.557Z,63.56
2022-09-21T09:44:38.543Z,63.56
2022-09-21T09:45:38.532Z,63.56
2022-09-21T09:46:38.561Z,63.56
2022-09-21T09:47:38.503Z,63.56
2022-09-21T09:48:38.490Z,63.56
2022-09-21T09:49:38.477Z,63.56
2022-09-21T09:50:38.463Z,63.56
2022-09-21T09:51:38.452Z,63.56
2022-09-21T09:52:38.437Z,63.56
2022-09-21T09:53:38.424Z,63.56
2022-09-21T09:54:38.411Z,63.53
2022-09-21T09:55:38.407Z,63.53
2022-09-21T09:56:38.383Z,63.56
2022-09-21T09:57:38.475Z,63.53
2022-09-21T09:58:38.355Z,63.53
2022-09-21T09:59:38.343Z,63.53
2022-09-21T10:00:38.332Z,63.53
2022-09-21T10:01:38.382Z,63.53
2022-09-21T10:02:38.304Z,63.53
2022-09-21T10:03:38.291Z,63.53
2022-09-21T10:04:38.359Z,63.53
2022-09-21T10:05:38.278Z,63.53
2022-09-21T10:06:42.357Z,63.53
2022-09-21T10:07:39.276Z,63.53
2022-09-21T10:08:44.231Z,63.62
2022-09-21T10:09:38.212Z,63.53
2022-09-21T10:10:44.202Z,63.53
2022-09-21T10:12:13.139Z,63.53
2022-09-21T10:13:13.148Z,63.53
2022-09-21T10:14:13.112Z,63.53
2022-09-21T10:15:13.096Z,63.53
2022-09-21T10:16:13.162Z,63.56
2022-09-21T10:17:13.070Z,63.53
2022-09-21T10:18:13.060Z,63.53
2022-09-21T10:19:13.044Z,63.53
2022-09-21T10:20:13.036Z,63.42
2022-09-21T10:21:13.019Z,63.53
2022-09-21T10:22:13.007Z,63.53
2022-09-21T10:23:12.990Z,63.53
2022-09-21T10:24:12.979Z,63.53
2022-09-21T10:25:12.966Z,63.53
2022-09-21T10:26:12.956Z,63.53
2022-09-21T10:27:12.938Z,63.53
2022-09-21T10:28:12.927Z,63.53
2022-09-21T10:29:12.935Z,63.53
2022-09-21T10:30:12.901Z,63.53
2022-09-21T10:31:12.977Z,63.53
2022-09-21T10:32:14.895Z,63.53
2022-09-21T10:33:12.859Z,63.42
2022-09-21T10:34:12.848Z,63.32
2022-09-21T10:35:12.832Z,63.32
2022-09-21T10:36:12.822Z,63.32
2022-09-21T10:37:12.814Z,63.32
2022-09-21T10:38:12.795Z,63.22
2022-09-21T10:39:12.780Z,63.22
2022-09-21T10:40:12.876Z,63.22
2022-09-21T10:41:12.754Z,63.22
2022-09-21T10:42:12.743Z,63.22
2022-09-21T10:43:12.727Z,63.12
2022-09-21T10:44:12.717Z,63.12
2022-09-21T10:45:12.731Z,63.12
2022-09-21T10:46:12.792Z,63.12
2022-09-21T10:47:14.641Z,63.12
2022-09-21T10:48:12.666Z,63.12
2022-09-21T10:49:12.652Z,63.12
2022-09-21T10:50:18.652Z,63.02
2022-09-21T10:51:12.626Z,62.92
2022-09-21T10:52:12.610Z,62.92
2022-09-21T10:53:12.600Z,62.92
2022-09-21T10:54:12.584Z,62.92
2022-09-21T10:55:12.573Z,63.02
2022-09-21T10:56:16.039Z,63.02
2022-09-21T10:57:12.547Z,62.92
2022-09-21T10:58:12.532Z,62.92
2022-09-21T10:59:12.522Z,63.02
2022-09-21T11:00:12.507Z,62.92
2022-09-21T11:01:12.621Z,62.92
2022-09-21T11:02:12.504Z,63.02
2022-09-21T11:03:12.468Z,63.02
2022-09-21T11:04:12.453Z,63.02
2022-09-21T11:05:12.442Z,63.12
2022-09-21T11:06:12.432Z,63.02
2022-09-21T11:07:12.418Z,63.02
2022-09-21T11:08:12.402Z,63.12
2022-09-21T11:09:12.390Z,63.12
2022-09-21T11:10:12.377Z,63.12
2022-09-21T11:11:12.362Z,63.12
2022-09-21T11:12:12.349Z,63.02
2022-09-21T11:13:12.338Z,63.12
2022-09-21T11:14:12.324Z,63.12
2022-09-21T11:15:12.310Z,63.12
2022-09-21T11:16:12.372Z,63.12
2022-09-21T11:17:12.308Z,63.12
2022-09-21T11:18:12.289Z,63.12
2022-09-21T11:19:12.260Z,63.12
2022-09-21T11:20:12.257Z,63.02
2022-09-21T11:21:12.234Z,63.02
2022-09-21T11:22:12.218Z,62.89
2022-09-21T11:23:12.208Z,62.79
2022-09-21T11:24:12.193Z,62.68
2022-09-21T11:25:12.181Z,62.68
2022-09-21T11:26:12.166Z,62.58
2022-09-21T11:27:12.154Z,62.48
2022-09-21T11:28:12.140Z,62.48
2022-09-21T11:29:12.128Z,62.48
2022-09-21T11:30:12.113Z,62.48
2022-09-21T11:31:12.150Z,62.58
2022-09-21T11:32:12.089Z,62.58
2022-09-21T11:33:12.099Z,62.58
2022-09-21T11:34:12.060Z,62.58
2022-09-21T11:35:12.050Z,62.61
2022-09-21T11:36:12.035Z,62.71
2022-09-21T11:37:12.032Z,62.68
2022-09-21T11:38:12.009Z,62.68
2022-09-21T11:39:12.001Z,62.68
2022-09-21T11:40:12.017Z,62.68
2022-09-21T11:41:11.971Z,62.68
2022-09-21T11:42:11.956Z,62.58
2022-09-21T11:43:11.944Z,62.58
2022-09-21T11:44:15.708Z,62.58
2022-09-21T11:45:12.957Z,62.58
2022-09-21T11:46:11.967Z,62.58
2022-09-21T11:47:11.892Z,62.58
2022-09-21T11:48:11.878Z,62.58
2022-09-21T11:49:11.891Z,62.48
2022-09-21T11:50:29.769Z,62.48
2022-09-21T11:51:12.884Z,62.48
2022-09-21T11:52:11.829Z,62.38
2022-09-21T11:53:11.812Z,62.28
2022-09-21T11:54:11.797Z,62.28
2022-09-21T11:55:11.787Z,62.28
2022-09-21T11:56:11.771Z,62.28
2022-09-21T11:57:11.759Z,62.18
2022-09-21T11:58:11.746Z,62.18
2022-09-21T11:59:11.734Z,62.18
2022-09-21T12:00:11.718Z,62.28
2022-09-21T12:01:11.709Z,62.28
2022-09-21T12:02:11.778Z,62.28
2022-09-21T12:03:11.680Z,62.28
2022-09-21T12:04:11.667Z,62.28
2022-09-21T12:05:11.681Z,62.18
2022-09-21T12:06:11.641Z,62.18
2022-09-21T12:07:11.628Z,62.18
2022-09-21T12:08:11.613Z,62.07
2022-09-21T12:09:11.602Z,62.07
2022-09-21T12:10:11.587Z,61.98
2022-09-21T12:11:11.577Z,61.87
2022-09-21T12:12:11.560Z,61.77
2022-09-21T12:13:11.548Z,61.77
2022-09-21T12:14:11.534Z,61.67
2022-09-21T12:15:11.630Z,61.57
2022-09-21T12:16:11.509Z,61.67
2022-09-21T12:17:11.526Z,61.67
2022-09-21T12:18:11.483Z,61.67
2022-09-21T12:19:11.470Z,61.67
2022-09-21T12:20:11.455Z,61.57
2022-09-21T12:21:11.471Z,61.57
2022-09-21T12:22:11.429Z,61.67
2022-09-21T12:23:11.419Z,61.57
2022-09-21T12:24:11.402Z,61.47
2022-09-21T12:25:11.391Z,61.47
2022-09-21T12:26:11.376Z,61.47
2022-09-21T12:27:11.364Z,61.27
2022-09-21T12:28:11.350Z,61.07
2022-09-21T12:29:11.339Z,61.07
2022-09-21T12:30:11.323Z,60.86
2022-09-21T12:31:11.346Z,60.86
2022-09-21T12:32:11.392Z,60.96
2022-09-21T12:33:11.287Z,60.86
2022-09-21T12:34:11.270Z,60.86
2022-09-21T12:35:11.262Z,60.86
2022-09-21T12:36:11.245Z,60.76
2022-09-21T12:37:11.257Z,60.86
2022-09-21T12:38:11.219Z,60.86
2022-09-21T12:39:11.206Z,60.86
2022-09-21T12:40:11.246Z,60.96
2022-09-21T12:41:11.180Z,61.07
2022-09-21T12:42:11.165Z,60.96
2022-09-21T12:43:11.799Z,60.96
2022-09-21T12:44:11.140Z,61.07
2022-09-21T12:45:11.132Z,60.96
2022-09-21T12:46:11.151Z,60.96
2022-09-21T12:47:11.100Z,60.96
2022-09-21T12:48:11.087Z,60.86
2022-09-21T12:49:11.075Z,60.86
2022-09-21T12:50:11.067Z,60.86
2022-09-21T12:51:11.049Z,60.86
2022-09-21T12:52:11.034Z,60.76
2022-09-21T12:53:11.048Z,60.86
2022-09-21T12:54:11.008Z,60.86
2022-09-21T12:55:11.190Z,60.76